sensor_id;sensor_type;location;lat;lon;timestamp;pressure;altitude;pressure_sealevel;temperature;humidity
74552;BME280;63025;55.472;38.432;2024-01-15T00:02:21;98401.19;;;-8.47;100.00
74552;BME280;63025;55.472;38.432;2024-01-15T00:04:47;98394.91;;;-8.45;100.00
74552;BME280;63025;55.472;38.432;2024-01-15T00:07:13;98391.88;;;-8.40;100.00
74552;BME280;63025;55.472;38.432;2024-01-15T00:09:39;98387.38;;;-8.29;100.00
74552;BME280;63025;55.472;38.432;2024-01-15T00:12:06;98380.28;;;-8.17;100.00
74552;BME280;63025;55.472;38.432;2024-01-15T00:14:32;98387.41;;;-8.19;100.00
74552;BME280;63025;55.472;38.432;2024-01-15T00:16:58;98385.22;;;-8.24;100.00
74552;BME280;63025;55.472;38.432;2024-01-15T00:19:24;98378.50;;;-8.17;100.00
74552;BME280;63025;55.472;38.432;2024-01-15T00:21:50;98371.38;;;-8.15;100.00
74552;BME280;63025;55.472;38.432;2024-01-15T00:24:16;98375.91;;;-8.17;100.00
74552;BME280;63025;55.472;38.432;2024-01-15T00:26:42;98380.84;;;-8.13;100.00
74552;BME280;63025;55.472;38.432;2024-01-15T00:29:09;98367.41;;;-8.09;100.00
74552;BME280;63025;55.472;38.432;2024-01-15T00:31:35;98366.06;;;-8.03;100.00
74552;BME280;63025;55.472;38.432;2024-01-15T00:34:01;98364.97;;;-8.10;100.00
74552;BME280;63025;55.472;38.432;2024-01-15T00:36:28;98367.94;;;-8.25;100.00
74552;BME280;63025;55.472;38.432;2024-01-15T00:38:54;98358.34;;;-8.15;100.00
74552;BME280;63025;55.472;38.432;2024-01-15T00:41:20;98355.38;;;-8.00;100.00
74552;BME280;63025;55.472;38.432;2024-01-15T00:43:46;98358.50;;;-8.06;100.00
74552;BME280;63025;55.472;38.432;2024-01-15T00:46:15;98354.38;;;-8.09;100.00
74552;BME280;63025;55.472;38.432;2024-01-15T00:48:41;98345.47;;;-8.06;100.00
74552;BME280;63025;55.472;38.432;2024-01-15T00:51:07;98352.22;;;-7.94;100.00
74552;BME280;63025;55.472;38.432;2024-01-15T00:53:33;98345.78;;;-7.90;100.00
74552;BME280;63025;55.472;38.432;2024-01-15T00:55:59;98347.72;;;-7.92;100.00
74552;BME280;63025;55.472;38.432;2024-01-15T00:58:26;98345.50;;;-7.78;100.00
74552;BME280;63025;55.472;38.432;2024-01-15T01:00:52;98344.28;;;-7.83;100.00
74552;BME280;63025;55.472;38.432;2024-01-15T01:03:18;98342.91;;;-7.87;100.00
74552;BME280;63025;55.472;38.432;2024-01-15T01:05:44;98333.72;;;-7.91;100.00
74552;BME280;63025;55.472;38.432;2024-01-15T01:08:10;98333.28;;;-7.96;100.00
74552;BME280;63025;55.472;38.432;2024-01-15T01:10:37;98334.38;;;-7.99;100.00
74552;BME280;63025;55.472;38.432;2024-01-15T01:13:03;98335.59;;;-8.12;100.00
74552;BME280;63025;55.472;38.432;2024-01-15T01:15:29;98333.28;;;-8.06;100.00
74552;BME280;63025;55.472;38.432;2024-01-15T01:17:55;98328.50;;;-8.01;100.00
74552;BME280;63025;55.472;38.432;2024-01-15T01:20:21;98324.63;;;-8.06;100.00
74552;BME280;63025;55.472;38.432;2024-01-15T01:22:47;98326.84;;;-8.11;100.00
74552;BME280;63025;55.472;38.432;2024-01-15T01:25:13;98324.63;;;-7.97;100.00
74552;BME280;63025;55.472;38.432;2024-01-15T01:27:38;98327.13;;;-7.95;100.00
74552;BME280;63025;55.472;38.432;2024-01-15T01:30:05;98317.06;;;-8.09;100.00
74552;BME280;63025;55.472;38.432;2024-01-15T01:32:31;98311.22;;;-7.92;100.00
74552;BME280;63025;55.472;38.432;2024-01-15T01:34:57;98313.00;;;-7.83;100.00
74552;BME280;63025;55.472;38.432;2024-01-15T01:37:23;98306.53;;;-7.89;100.00
74552;BME280;63025;55.472;38.432;2024-01-15T01:39:48;98310.66;;;-7.86;100.00
74552;BME280;63025;55.472;38.432;2024-01-15T01:42:15;98295.72;;;-7.94;100.00
74552;BME280;63025;55.472;38.432;2024-01-15T01:44:41;98298.31;;;-7.84;100.00
74552;BME280;63025;55.472;38.432;2024-01-15T01:47:07;98305.16;;;-8.02;100.00
74552;BME280;63025;55.472;38.432;2024-01-15T01:49:34;98306.97;;;-7.93;100.00
74552;BME280;63025;55.472;38.432;2024-01-15T01:52:02;98305.31;;;-7.94;100.00
74552;BME280;63025;55.472;38.432;2024-01-15T01:54:32;98286.50;;;-7.98;100.00
74552;BME280;63025;55.472;38.432;2024-01-15T01:56:58;98286.50;;;-7.88;100.00
74552;BME280;63025;55.472;38.432;2024-01-15T01:59:27;98292.53;;;-7.78;100.00
74552;BME280;63025;55.472;38.432;2024-01-15T02:01:54;98296.41;;;-7.82;100.00
74552;BME280;63025;55.472;38.432;2024-01-15T02:04:24;98284.88;;;-7.80;100.00
74552;BME280;63025;55.472;38.432;2024-01-15T02:06:50;98294.88;;;-7.75;100.00
74552;BME280;63025;55.472;38.432;2024-01-15T02:09:17;98285.97;;;-7.72;100.00
74552;BME280;63025;55.472;38.432;2024-01-15T02:11:46;98287.34;;;-7.59;100.00
74552;BME280;63025;55.472;38.432;2024-01-15T02:14:12;98280.03;;;-7.46;100.00
74552;BME280;63025;55.472;38.432;2024-01-15T02:16:39;98276.88;;;-7.39;100.00
74552;BME280;63025;55.472;38.432;2024-01-15T02:19:06;98277.28;;;-7.44;100.00
74552;BME280;63025;55.472;38.432;2024-01-15T02:21:32;98277.41;;;-7.36;100.00
74552;BME280;63025;55.472;38.432;2024-01-15T02:24:07;98276.03;;;-7.30;100.00
74552;BME280;63025;55.472;38.432;2024-01-15T02:26:33;98275.50;;;-7.44;100.00
74552;BME280;63025;55.472;38.432;2024-01-15T02:29:02;98272.97;;;-7.26;100.00
74552;BME280;63025;55.472;38.432;2024-01-15T02:31:28;98266.84;;;-7.34;100.00
74552;BME280;63025;55.472;38.432;2024-01-15T02:33:54;98264.91;;;-7.32;100.00
74552;BME280;63025;55.472;38.432;2024-01-15T02:36:20;98270.34;;;-7.16;100.00
74552;BME280;63025;55.472;38.432;2024-01-15T02:38:45;98266.13;;;-7.17;100.00
74552;BME280;63025;55.472;38.432;2024-01-15T02:41:11;98259.94;;;-7.26;100.00
74552;BME280;63025;55.472;38.432;2024-01-15T02:43:40;98266.81;;;-7.25;100.00
74552;BME280;63025;55.472;38.432;2024-01-15T02:46:07;98262.31;;;-7.32;100.00
74552;BME280;63025;55.472;38.432;2024-01-15T02:48:33;98263.41;;;-7.35;100.00
74552;BME280;63025;55.472;38.432;2024-01-15T02:51:01;98265.03;;;-7.34;100.00
74552;BME280;63025;55.472;38.432;2024-01-15T02:53:28;98267.78;;;-7.35;100.00
74552;BME280;63025;55.472;38.432;2024-01-15T02:55:54;98270.13;;;-7.32;100.00
74552;BME280;63025;55.472;38.432;2024-01-15T02:58:21;98263.69;;;-7.28;100.00
74552;BME280;63025;55.472;38.432;2024-01-15T03:00:47;98263.00;;;-7.30;100.00
74552;BME280;63025;55.472;38.432;2024-01-15T03:03:13;98250.06;;;-7.22;100.00
74552;BME280;63025;55.472;38.432;2024-01-15T03:05:39;98257.03;;;-7.13;100.00
74552;BME280;63025;55.472;38.432;2024-01-15T03:08:05;98263.22;;;-7.24;100.00
74552;BME280;63025;55.472;38.432;2024-01-15T03:10:31;98258.94;;;-7.15;100.00
74552;BME280;63025;55.472;38.432;2024-01-15T03:12:57;98258.78;;;-7.04;100.00
74552;BME280;63025;55.472;38.432;2024-01-15T03:15:23;98264.00;;;-7.04;100.00
74552;BME280;63025;55.472;38.432;2024-01-15T03:17:49;98261.09;;;-7.01;100.00
74552;BME280;63025;55.472;38.432;2024-01-15T03:20:15;98260.84;;;-6.98;100.00
74552;BME280;63025;55.472;38.432;2024-01-15T03:22:40;98253.69;;;-6.96;100.00
74552;BME280;63025;55.472;38.432;2024-01-15T03:25:07;98252.31;;;-7.00;100.00
74552;BME280;63025;55.472;38.432;2024-01-15T03:27:33;98253.09;;;-6.90;100.00
74552;BME280;63025;55.472;38.432;2024-01-15T03:29:59;98249.53;;;-6.89;100.00
74552;BME280;63025;55.472;38.432;2024-01-15T03:32:25;98259.56;;;-6.94;100.00
74552;BME280;63025;55.472;38.432;2024-01-15T03:34:51;98251.19;;;-6.88;100.00
74552;BME280;63025;55.472;38.432;2024-01-15T03:37:18;98243.19;;;-6.86;100.00
74552;BME280;63025;55.472;38.432;2024-01-15T03:39:45;98250.22;;;-6.87;100.00
74552;BME280;63025;55.472;38.432;2024-01-15T03:42:11;98240.72;;;-6.88;100.00
74552;BME280;63025;55.472;38.432;2024-01-15T03:44:38;98239.09;;;-6.89;100.00
74552;BME280;63025;55.472;38.432;2024-01-15T03:47:04;98234.78;;;-7.08;100.00
74552;BME280;63025;55.472;38.432;2024-01-15T03:49:30;98236.47;;;-6.89;100.00
74552;BME280;63025;55.472;38.432;2024-01-15T03:51:55;98233.28;;;-6.83;100.00
74552;BME280;63025;55.472;38.432;2024-01-15T03:54:21;98236.38;;;-6.70;100.00
74552;BME280;63025;55.472;38.432;2024-01-15T03:56:47;98231.44;;;-6.73;100.00
74552;BME280;63025;55.472;38.432;2024-01-15T03:59:13;98235.91;;;-6.55;100.00
74552;BME280;63025;55.472;38.432;2024-01-15T04:01:39;98231.56;;;-6.47;100.00
74552;BME280;63025;55.472;38.432;2024-01-15T04:04:05;98218.38;;;-6.45;100.00
74552;BME280;63025;55.472;38.432;2024-01-15T04:06:31;98220.72;;;-6.52;100.00
74552;BME280;63025;55.472;38.432;2024-01-15T04:08:56;98228.81;;;-6.45;100.00
74552;BME280;63025;55.472;38.432;2024-01-15T04:11:22;98229.78;;;-6.46;100.00
74552;BME280;63025;55.472;38.432;2024-01-15T04:13:49;98225.91;;;-6.42;100.00
74552;BME280;63025;55.472;38.432;2024-01-15T04:16:15;98231.50;;;-6.37;100.00
74552;BME280;63025;55.472;38.432;2024-01-15T04:18:41;98223.66;;;-6.55;100.00
74552;BME280;63025;55.472;38.432;2024-01-15T04:21:07;98229.03;;;-6.39;100.00
74552;BME280;63025;55.472;38.432;2024-01-15T04:23:33;98224.88;;;-6.32;100.00
74552;BME280;63025;55.472;38.432;2024-01-15T04:25:59;98229.25;;;-6.32;100.00
74552;BME280;63025;55.472;38.432;2024-01-15T04:28:25;98224.34;;;-6.35;100.00
74552;BME280;63025;55.472;38.432;2024-01-15T04:30:51;98231.66;;;-6.21;100.00
74552;BME280;63025;55.472;38.432;2024-01-15T04:33:17;98226.97;;;-6.17;100.00
74552;BME280;63025;55.472;38.432;2024-01-15T04:35:42;98230.03;;;-6.22;100.00
74552;BME280;63025;55.472;38.432;2024-01-15T04:38:08;98220.03;;;-6.26;100.00
74552;BME280;63025;55.472;38.432;2024-01-15T04:40:34;98227.78;;;-6.17;100.00
74552;BME280;63025;55.472;38.432;2024-01-15T04:43:00;98227.25;;;-6.20;100.00
74552;BME280;63025;55.472;38.432;2024-01-15T04:45:25;98222.03;;;-6.20;100.00
74552;BME280;63025;55.472;38.432;2024-01-15T04:47:54;98219.50;;;-6.12;100.00
74552;BME280;63025;55.472;38.432;2024-01-15T04:50:22;98232.13;;;-6.08;100.00
74552;BME280;63025;55.472;38.432;2024-01-15T04:52:49;98213.22;;;-6.19;100.00
74552;BME280;63025;55.472;38.432;2024-01-15T04:55:15;98230.03;;;-6.04;100.00
74552;BME280;63025;55.472;38.432;2024-01-15T04:57:41;98221.44;;;-5.97;100.00
74552;BME280;63025;55.472;38.432;2024-01-15T05:00:07;98225.75;;;-5.87;100.00
74552;BME280;63025;55.472;38.432;2024-01-15T05:02:33;98218.28;;;-5.82;100.00
74552;BME280;63025;55.472;38.432;2024-01-15T05:05:00;98221.84;;;-5.83;100.00
74552;BME280;63025;55.472;38.432;2024-01-15T05:07:26;98224.47;;;-5.83;100.00
74552;BME280;63025;55.472;38.432;2024-01-15T05:09:52;98217.94;;;-5.79;100.00
74552;BME280;63025;55.472;38.432;2024-01-15T05:12:17;98223.19;;;-5.79;100.00
74552;BME280;63025;55.472;38.432;2024-01-15T05:14:43;98231.41;;;-5.74;100.00
74552;BME280;63025;55.472;38.432;2024-01-15T05:17:09;98226.28;;;-5.84;100.00
74552;BME280;63025;55.472;38.432;2024-01-15T05:19:35;98223.72;;;-5.76;100.00
74552;BME280;63025;55.472;38.432;2024-01-15T05:22:01;98223.72;;;-5.76;100.00
74552;BME280;63025;55.472;38.432;2024-01-15T05:24:27;98220.94;;;-5.74;100.00
74552;BME280;63025;55.472;38.432;2024-01-15T05:26:53;98219.75;;;-5.80;100.00
74552;BME280;63025;55.472;38.432;2024-01-15T05:29:19;98223.28;;;-5.71;100.00
74552;BME280;63025;55.472;38.432;2024-01-15T05:31:45;98218.78;;;-5.79;100.00
74552;BME280;63025;55.472;38.432;2024-01-15T05:34:11;98219.91;;;-5.81;100.00
74552;BME280;63025;55.472;38.432;2024-01-15T05:36:37;98215.72;;;-5.74;100.00
74552;BME280;63025;55.472;38.432;2024-01-15T05:39:03;98207.72;;;-5.73;100.00
74552;BME280;63025;55.472;38.432;2024-01-15T05:41:29;98210.75;;;-5.60;100.00
74552;BME280;63025;55.472;38.432;2024-01-15T05:43:55;98208.59;;;-5.64;100.00
74552;BME280;63025;55.472;38.432;2024-01-15T05:46:21;98207.31;;;-5.60;100.00
74552;BME280;63025;55.472;38.432;2024-01-15T05:48:47;98211.31;;;-5.74;100.00
74552;BME280;63025;55.472;38.432;2024-01-15T05:51:13;98203.38;;;-5.64;100.00
74552;BME280;63025;55.472;38.432;2024-01-15T05:53:39;98214.81;;;-5.65;100.00
74552;BME280;63025;55.472;38.432;2024-01-15T05:56:07;98222.66;;;-5.65;100.00
74552;BME280;63025;55.472;38.432;2024-01-15T05:58:33;98225.41;;;-5.67;100.00
74552;BME280;63025;55.472;38.432;2024-01-15T06:00:59;98218.69;;;-5.69;100.00
74552;BME280;63025;55.472;38.432;2024-01-15T06:03:25;98204.03;;;-5.62;100.00
74552;BME280;63025;55.472;38.432;2024-01-15T06:05:51;98208.34;;;-5.53;100.00
74552;BME280;63025;55.472;38.432;2024-01-15T06:08:16;98216.09;;;-5.43;100.00
74552;BME280;63025;55.472;38.432;2024-01-15T06:10:42;98206.31;;;-5.41;100.00
74552;BME280;63025;55.472;38.432;2024-01-15T06:13:08;98209.78;;;-5.33;100.00
74552;BME280;63025;55.472;38.432;2024-01-15T06:15:34;98210.63;;;-5.32;100.00
74552;BME280;63025;55.472;38.432;2024-01-15T06:18:00;98214.09;;;-5.24;100.00
74552;BME280;63025;55.472;38.432;2024-01-15T06:20:25;98213.38;;;-5.34;100.00
74552;BME280;63025;55.472;38.432;2024-01-15T06:22:51;98216.34;;;-5.29;100.00
74552;BME280;63025;55.472;38.432;2024-01-15T06:25:17;98212.09;;;-5.30;100.00
74552;BME280;63025;55.472;38.432;2024-01-15T06:27:43;98214.88;;;-5.31;100.00
74552;BME280;63025;55.472;38.432;2024-01-15T06:30:09;98210.50;;;-5.23;100.00
74552;BME280;63025;55.472;38.432;2024-01-15T06:32:35;98215.22;;;-5.26;100.00
74552;BME280;63025;55.472;38.432;2024-01-15T06:35:01;98204.19;;;-5.12;100.00
74552;BME280;63025;55.472;38.432;2024-01-15T06:37:29;98212.03;;;-5.12;100.00
74552;BME280;63025;55.472;38.432;2024-01-15T06:39:54;98209.97;;;-5.00;100.00
74552;BME280;63025;55.472;38.432;2024-01-15T06:42:20;98208.31;;;-5.01;100.00
74552;BME280;63025;55.472;38.432;2024-01-15T06:44:47;98218.13;;;-5.03;100.00
74552;BME280;63025;55.472;38.432;2024-01-15T06:47:13;98217.47;;;-5.05;100.00
74552;BME280;63025;55.472;38.432;2024-01-15T06:49:40;98204.75;;;-4.92;100.00
74552;BME280;63025;55.472;38.432;2024-01-15T06:52:06;98211.97;;;-4.86;100.00
74552;BME280;63025;55.472;38.432;2024-01-15T06:54:31;98206.56;;;-4.93;100.00
74552;BME280;63025;55.472;38.432;2024-01-15T06:56:57;98214.13;;;-4.90;100.00
74552;BME280;63025;55.472;38.432;2024-01-15T06:59:23;98209.34;;;-4.86;100.00
74552;BME280;63025;55.472;38.432;2024-01-15T07:01:49;98209.41;;;-4.78;100.00
74552;BME280;63025;55.472;38.432;2024-01-15T07:04:15;98211.09;;;-4.69;100.00
74552;BME280;63025;55.472;38.432;2024-01-15T07:06:41;98216.47;;;-4.70;100.00
74552;BME280;63025;55.472;38.432;2024-01-15T07:09:07;98216.00;;;-4.66;100.00
74552;BME280;63025;55.472;38.432;2024-01-15T07:11:33;98204.72;;;-4.58;100.00
74552;BME280;63025;55.472;38.432;2024-01-15T07:13:59;98218.00;;;-4.60;100.00
74552;BME280;63025;55.472;38.432;2024-01-15T07:16:25;98214.25;;;-4.57;100.00
74552;BME280;63025;55.472;38.432;2024-01-15T07:18:51;98212.47;;;-4.49;100.00
74552;BME280;63025;55.472;38.432;2024-01-15T07:21:17;98210.81;;;-4.50;100.00
74552;BME280;63025;55.472;38.432;2024-01-15T07:23:42;98217.88;;;-4.34;100.00
74552;BME280;63025;55.472;38.432;2024-01-15T07:26:08;98209.03;;;-4.41;100.00
74552;BME280;63025;55.472;38.432;2024-01-15T07:28:35;98204.47;;;-4.23;100.00
74552;BME280;63025;55.472;38.432;2024-01-15T07:31:00;98213.31;;;-4.24;100.00
74552;BME280;63025;55.472;38.432;2024-01-15T07:33:29;98209.72;;;-4.15;100.00
74552;BME280;63025;55.472;38.432;2024-01-15T07:35:55;98219.25;;;-4.14;100.00
74552;BME280;63025;55.472;38.432;2024-01-15T07:38:21;98213.97;;;-4.30;100.00
74552;BME280;63025;55.472;38.432;2024-01-15T07:40:48;98208.59;;;-4.20;100.00
74552;BME280;63025;55.472;38.432;2024-01-15T07:43:15;98212.53;;;-4.08;100.00
74552;BME280;63025;55.472;38.432;2024-01-15T07:45:41;98208.63;;;-3.96;100.00
74552;BME280;63025;55.472;38.432;2024-01-15T07:48:07;98215.00;;;-3.98;100.00
74552;BME280;63025;55.472;38.432;2024-01-15T07:50:32;98211.88;;;-4.02;100.00
74552;BME280;63025;55.472;38.432;2024-01-15T07:52:58;98218.63;;;-3.91;100.00
74552;BME280;63025;55.472;38.432;2024-01-15T07:55:24;98212.22;;;-3.89;100.00
74552;BME280;63025;55.472;38.432;2024-01-15T07:57:50;98217.97;;;-3.77;100.00
74552;BME280;63025;55.472;38.432;2024-01-15T08:00:17;98213.19;;;-3.74;100.00
74552;BME280;63025;55.472;38.432;2024-01-15T08:02:43;98221.44;;;-3.77;100.00
74552;BME280;63025;55.472;38.432;2024-01-15T08:05:09;98217.47;;;-3.81;100.00
74552;BME280;63025;55.472;38.432;2024-01-15T08:07:35;98214.84;;;-3.73;100.00
74552;BME280;63025;55.472;38.432;2024-01-15T08:10:01;98213.03;;;-3.72;100.00
74552;BME280;63025;55.472;38.432;2024-01-15T08:12:27;98219.13;;;-3.72;100.00
74552;BME280;63025;55.472;38.432;2024-01-15T08:14:53;98218.13;;;-3.62;100.00
74552;BME280;63025;55.472;38.432;2024-01-15T08:17:19;98215.34;;;-3.77;100.00
74552;BME280;63025;55.472;38.432;2024-01-15T08:19:45;98199.94;;;-3.56;100.00
74552;BME280;63025;55.472;38.432;2024-01-15T08:22:12;98214.88;;;-3.64;100.00
74552;BME280;63025;55.472;38.432;2024-01-15T08:24:38;98206.34;;;-3.66;100.00
74552;BME280;63025;55.472;38.432;2024-01-15T08:27:04;98205.34;;;-3.57;100.00
74552;BME280;63025;55.472;38.432;2024-01-15T08:29:30;98217.81;;;-3.43;100.00
74552;BME280;63025;55.472;38.432;2024-01-15T08:31:59;98204.97;;;-3.38;100.00
74552;BME280;63025;55.472;38.432;2024-01-15T08:34:25;98203.84;;;-3.44;100.00
74552;BME280;63025;55.472;38.432;2024-01-15T08:36:51;98201.06;;;-3.50;100.00
74552;BME280;63025;55.472;38.432;2024-01-15T08:39:16;98209.56;;;-3.40;100.00
74552;BME280;63025;55.472;38.432;2024-01-15T08:41:43;98199.59;;;-3.45;100.00
74552;BME280;63025;55.472;38.432;2024-01-15T08:44:09;98211.72;;;-3.44;100.00
74552;BME280;63025;55.472;38.432;2024-01-15T08:46:35;98208.94;;;-3.34;100.00
74552;BME280;63025;55.472;38.432;2024-01-15T08:49:01;98213.19;;;-3.41;100.00
74552;BME280;63025;55.472;38.432;2024-01-15T08:51:28;98207.06;;;-3.17;100.00
74552;BME280;63025;55.472;38.432;2024-01-15T08:53:56;98218.53;;;-3.10;100.00
74552;BME280;63025;55.472;38.432;2024-01-15T08:56:22;98213.63;;;-3.05;100.00
74552;BME280;63025;55.472;38.432;2024-01-15T08:58:47;98208.19;;;-2.96;100.00
74552;BME280;63025;55.472;38.432;2024-01-15T09:01:14;98209.03;;;-3.03;100.00
74552;BME280;63025;55.472;38.432;2024-01-15T09:03:40;98209.19;;;-3.05;100.00
74552;BME280;63025;55.472;38.432;2024-01-15T09:06:09;98211.00;;;-3.05;100.00
74552;BME280;63025;55.472;38.432;2024-01-15T09:08:35;98204.44;;;-3.01;100.00
74552;BME280;63025;55.472;38.432;2024-01-15T09:11:02;98208.66;;;-3.00;100.00
74552;BME280;63025;55.472;38.432;2024-01-15T09:13:29;98218.06;;;-3.06;100.00
74552;BME280;63025;55.472;38.432;2024-01-15T09:15:55;98215.09;;;-3.03;100.00
74552;BME280;63025;55.472;38.432;2024-01-15T09:18:21;98208.00;;;-2.94;100.00
74552;BME280;63025;55.472;38.432;2024-01-15T09:20:46;98204.03;;;-2.90;100.00
74552;BME280;63025;55.472;38.432;2024-01-15T09:23:12;98217.22;;;-2.98;100.00
74552;BME280;63025;55.472;38.432;2024-01-15T09:25:38;98208.34;;;-2.97;100.00
74552;BME280;63025;55.472;38.432;2024-01-15T09:28:04;98200.41;;;-2.81;100.00
74552;BME280;63025;55.472;38.432;2024-01-15T09:30:30;98213.84;;;-2.76;100.00
74552;BME280;63025;55.472;38.432;2024-01-15T09:32:56;98213.84;;;-2.76;100.00
74552;BME280;63025;55.472;38.432;2024-01-15T09:35:22;98211.63;;;-2.56;100.00
74552;BME280;63025;55.472;38.432;2024-01-15T09:37:48;98212.28;;;-2.54;100.00
74552;BME280;63025;55.472;38.432;2024-01-15T09:40:15;98215.13;;;-2.64;100.00
74552;BME280;63025;55.472;38.432;2024-01-15T09:42:41;98210.00;;;-2.57;100.00
74552;BME280;63025;55.472;38.432;2024-01-15T09:45:08;98212.88;;;-2.44;100.00
74552;BME280;63025;55.472;38.432;2024-01-15T09:47:36;98221.44;;;-2.42;100.00
74552;BME280;63025;55.472;38.432;2024-01-15T09:50:03;98212.84;;;-2.36;100.00
74552;BME280;63025;55.472;38.432;2024-01-15T09:52:30;98209.34;;;-2.28;100.00
74552;BME280;63025;55.472;38.432;2024-01-15T09:54:58;98215.91;;;-2.24;100.00
74552;BME280;63025;55.472;38.432;2024-01-15T09:57:25;98207.25;;;-2.33;100.00
74552;BME280;63025;55.472;38.432;2024-01-15T09:59:51;98214.31;;;-2.33;100.00
74552;BME280;63025;55.472;38.432;2024-01-15T10:02:17;98220.28;;;-2.47;100.00
74552;BME280;63025;55.472;38.432;2024-01-15T10:04:44;98211.78;;;-2.49;100.00
74552;BME280;63025;55.472;38.432;2024-01-15T10:07:15;98215.19;;;-2.49;100.00
74552;BME280;63025;55.472;38.432;2024-01-15T10:09:42;98216.56;;;-2.53;100.00
74552;BME280;63025;55.472;38.432;2024-01-15T10:12:09;98214.22;;;-2.48;100.00
74552;BME280;63025;55.472;38.432;2024-01-15T10:14:35;98218.66;;;-2.48;100.00
74552;BME280;63025;55.472;38.432;2024-01-15T10:17:12;98207.31;;;-2.49;100.00
74552;BME280;63025;55.472;38.432;2024-01-15T10:19:37;98215.28;;;-2.65;100.00
74552;BME280;63025;55.472;38.432;2024-01-15T10:22:03;98202.84;;;-2.71;100.00
74552;BME280;63025;55.472;38.432;2024-01-15T10:24:29;98212.88;;;-2.75;100.00
74552;BME280;63025;55.472;38.432;2024-01-15T10:27:07;98202.84;;;-2.79;100.00
74552;BME280;63025;55.472;38.432;2024-01-15T10:29:34;98206.53;;;-2.97;100.00
74552;BME280;63025;55.472;38.432;2024-01-15T10:32:00;98211.78;;;-2.97;100.00
74552;BME280;63025;55.472;38.432;2024-01-15T10:34:26;98204.41;;;-2.93;100.00
74552;BME280;63025;55.472;38.432;2024-01-15T10:36:52;98199.41;;;-2.80;100.00
74552;BME280;63025;55.472;38.432;2024-01-15T10:39:22;98195.41;;;-2.60;100.00
74552;BME280;63025;55.472;38.432;2024-01-15T10:41:48;98200.44;;;-2.50;100.00
74552;BME280;63025;55.472;38.432;2024-01-15T10:44:13;98202.19;;;-2.42;100.00
74552;BME280;63025;55.472;38.432;2024-01-15T10:46:39;98194.44;;;-2.36;100.00
74552;BME280;63025;55.472;38.432;2024-01-15T10:49:06;98193.97;;;-2.16;100.00
74552;BME280;63025;55.472;38.432;2024-01-15T10:51:32;98196.69;;;-2.02;100.00
74552;BME280;63025;55.472;38.432;2024-01-15T10:53:59;98191.34;;;-2.16;100.00
74552;BME280;63025;55.472;38.432;2024-01-15T10:56:27;98189.84;;;-2.11;100.00
74552;BME280;63025;55.472;38.432;2024-01-15T10:58:54;98182.59;;;-2.32;100.00
74552;BME280;63025;55.472;38.432;2024-01-15T11:01:21;98191.47;;;-2.33;100.00
74552;BME280;63025;55.472;38.432;2024-01-15T11:03:47;98188.19;;;-2.35;100.00
74552;BME280;63025;55.472;38.432;2024-01-15T11:06:17;98188.72;;;-2.39;100.00
74552;BME280;63025;55.472;38.432;2024-01-15T11:08:49;98189.09;;;-2.50;100.00
74552;BME280;63025;55.472;38.432;2024-01-15T11:11:16;98187.91;;;-2.48;100.00
74552;BME280;63025;55.472;38.432;2024-01-15T11:13:43;98182.59;;;-2.32;100.00
74552;BME280;63025;55.472;38.432;2024-01-15T11:16:13;98179.25;;;-2.26;100.00
74552;BME280;63025;55.472;38.432;2024-01-15T11:19:01;98177.84;;;-2.13;100.00
74552;BME280;63025;55.472;38.432;2024-01-15T11:21:28;98177.69;;;-2.12;100.00
74552;BME280;63025;55.472;38.432;2024-01-15T11:29:04;98179.91;;;-2.24;100.00
74552;BME280;63025;55.472;38.432;2024-01-15T11:34:02;98176.97;;;-2.29;100.00
74552;BME280;63025;55.472;38.432;2024-01-15T11:42:01;98177.81;;;-2.36;100.00
74552;BME280;63025;55.472;38.432;2024-01-15T11:44:29;98177.97;;;-2.30;100.00
74552;BME280;63025;55.472;38.432;2024-01-15T11:47:11;98175.34;;;-2.30;100.00
74552;BME280;63025;55.472;38.432;2024-01-15T11:50:01;98176.97;;;-2.29;100.00
74552;BME280;63025;55.472;38.432;2024-01-15T11:52:34;98185.16;;;-2.24;100.00
74552;BME280;63025;55.472;38.432;2024-01-15T12:00:06;98191.06;;;-2.22;100.00
74552;BME280;63025;55.472;38.432;2024-01-15T12:02:46;98188.19;;;-2.35;100.00
74552;BME280;63025;55.472;38.432;2024-01-15T12:05:14;98185.00;;;-2.53;100.00
74552;BME280;63025;55.472;38.432;2024-01-15T12:07:45;98181.59;;;-2.62;100.00
74552;BME280;63025;55.472;38.432;2024-01-15T12:10:18;98178.44;;;-2.57;100.00
74552;BME280;63025;55.472;38.432;2024-01-15T12:12:57;98187.47;;;-2.51;100.00
74552;BME280;63025;55.472;38.432;2024-01-15T12:15:25;98192.13;;;-2.70;100.00
74552;BME280;63025;55.472;38.432;2024-01-15T12:17:52;98192.31;;;-2.71;100.00
74552;BME280;63025;55.472;38.432;2024-01-15T12:20:20;98181.47;;;-2.76;100.00
74552;BME280;63025;55.472;38.432;2024-01-15T12:22:45;98174.91;;;-2.72;100.00
74552;BME280;63025;55.472;38.432;2024-01-15T12:25:11;98173.22;;;-2.65;100.00
74552;BME280;63025;55.472;38.432;2024-01-15T12:27:37;98180.00;;;-2.71;100.00
74552;BME280;63025;55.472;38.432;2024-01-15T12:30:04;98177.41;;;-2.87;100.00
74552;BME280;63025;55.472;38.432;2024-01-15T12:32:31;98181.31;;;-2.75;100.00
74552;BME280;63025;55.472;38.432;2024-01-15T12:34:57;98177.22;;;-2.77;100.00
74552;BME280;63025;55.472;38.432;2024-01-15T12:37:23;98184.13;;;-2.76;100.00
74552;BME280;63025;55.472;38.432;2024-01-15T12:39:52;98187.78;;;-2.85;100.00
74552;BME280;63025;55.472;38.432;2024-01-15T12:42:21;98178.13;;;-2.93;100.00
74552;BME280;63025;55.472;38.432;2024-01-15T12:44:47;98169.91;;;-2.98;100.00
74552;BME280;63025;55.472;38.432;2024-01-15T12:47:13;98175.31;;;-3.00;100.00
74552;BME280;63025;55.472;38.432;2024-01-15T12:49:40;98175.53;;;-3.01;100.00
74552;BME280;63025;55.472;38.432;2024-01-15T12:52:08;98179.00;;;-3.17;100.00
74552;BME280;63025;55.472;38.432;2024-01-15T12:54:34;98181.13;;;-3.20;100.00
74552;BME280;63025;55.472;38.432;2024-01-15T12:57:00;98172.09;;;-3.10;100.00